Time;durP1;ratioP1;P1;durP2;ratioP2;P2;SDS_P1;SDS_P2;PMS_P1;PMS_P2;Temp;Humidity;BMP_temperature;BMP_pressure;BME280_temperature;BME280_humidity;BME280_pressure;Samples;Min_cycle;Max_cycle;Signal;HPM_P1;HPM_P2
2021/11/13 00:00:27;;;;;;;19.05;9.07;;;3.20;99.90;;;;;;4978616;28;20352;-66
2021/11/13 00:02:54;;;;;;;14.75;7.32;;;3.20;99.90;;;;;;4961364;28;20030;-67
2021/11/13 00:05:22;;;;;;;16.80;8.00;;;3.30;99.90;;;;;;4977541;28;20073;-66
2021/11/13 00:07:50;;;;;;;15.52;7.40;;;3.30;99.90;;;;;;4977534;28;20023;-66
2021/11/13 00:10:25;;;;;;;17.65;8.88;;;3.30;99.90;;;;;;4978229;28;20051;-66
2021/11/13 00:12:55;;;;;;;16.25;7.40;;;3.30;99.90;;;;;;4978901;28;20045;-67
2021/11/13 00:15:24;;;;;;;16.48;8.20;;;3.40;99.90;;;;;;4978655;28;20407;-66
2021/11/13 00:17:52;;;;;;;18.60;8.90;;;3.40;99.90;;;;;;4961253;28;20023;-67
2021/11/13 00:20:21;;;;;;;18.10;7.40;;;3.40;99.90;;;;;;4978391;28;20023;-66
2021/11/13 00:22:49;;;;;;;16.83;7.97;;;3.40;99.90;;;;;;4978476;28;20034;-67
2021/11/13 00:25:17;;;;;;;13.15;7.03;;;3.40;99.90;;;;;;4978233;28;20428;-66
2021/11/13 00:27:44;;;;;;;15.00;8.48;;;3.40;99.90;;;;;;4961038;28;20031;-66
2021/11/13 00:30:13;;;;;;;14.35;7.65;;;3.40;99.90;;;;;;4978205;28;20054;-67
2021/11/13 00:32:41;;;;;;;18.70;7.75;;;3.30;99.90;;;;;;4977876;28;20031;-66
2021/11/13 00:35:09;;;;;;;18.02;8.10;;;3.30;99.90;;;;;;4977351;28;20387;-66
2021/11/13 00:37:36;;;;;;;15.00;7.03;;;3.30;99.90;;;;;;4977301;28;20023;-67
2021/11/13 00:40:05;;;;;;;15.38;7.82;;;3.30;99.90;;;;;;4977238;28;20424;-66
2021/11/13 00:42:32;;;;;;;13.82;6.95;;;3.30;99.90;;;;;;4977753;28;20031;-67
2021/11/13 00:45:00;;;;;;;13.55;7.38;;;3.20;99.90;;;;;;4977730;28;20027;-66
2021/11/13 00:47:28;;;;;;;15.90;7.45;;;3.30;99.90;;;;;;4977235;28;20129;-67
2021/11/13 00:49:56;;;;;;;13.98;6.68;;;3.20;99.90;;;;;;4978335;28;20019;-66
2021/11/13 00:52:23;;;;;;;15.80;7.72;;;3.30;99.90;;;;;;4981133;28;20420;-67
2021/11/13 00:54:51;;;;;;;15.32;7.82;;;3.30;99.90;;;;;;4982189;28;20050;-66
2021/11/13 00:57:19;;;;;;;16.95;7.80;;;3.40;99.90;;;;;;4964549;28;20058;-67
2021/11/13 00:59:47;;;;;;;16.13;8.20;;;3.40;99.90;;;;;;4981629;28;20019;-66
2021/11/13 01:02:15;;;;;;;13.88;7.32;;;3.40;99.90;;;;;;4981588;28;20061;-67
2021/11/13 01:04:42;;;;;;;16.60;7.80;;;3.50;99.90;;;;;;4981967;28;20026;-67
2021/11/13 01:07:10;;;;;;;13.00;6.72;;;3.50;99.90;;;;;;4981574;28;20027;-66
2021/11/13 01:09:38;;;;;;;16.42;8.10;;;3.50;99.90;;;;;;4981453;28;20023;-66
2021/11/13 01:12:06;;;;;;;14.27;7.78;;;3.60;99.90;;;;;;4981246;28;20034;-67
2021/11/13 01:14:39;;;;;;;14.48;7.30;;;3.60;99.90;;;;;;4980965;28;20041;-66
2021/11/13 01:17:10;;;;;;;12.95;6.75;;;3.60;99.90;;;;;;4981335;28;20023;-67
2021/11/13 01:19:39;;;;;;;14.60;7.50;;;3.60;99.90;;;;;;4963053;28;20125;-67
2021/11/13 01:22:07;;;;;;;13.52;7.45;;;3.70;99.90;;;;;;4963172;28;20042;-67
2021/11/13 01:24:34;;;;;;;13.93;8.13;;;3.70;99.90;;;;;;4980785;28;20311;-66
2021/11/13 01:27:02;;;;;;;16.42;7.32;;;3.70;99.90;;;;;;4980271;28;20034;-67
2021/11/13 01:29:30;;;;;;;13.23;7.15;;;3.70;99.90;;;;;;4962936;28;20033;-67
2021/11/13 01:31:57;;;;;;;13.73;6.68;;;3.70;99.90;;;;;;4980174;28;20098;-67
2021/11/13 01:34:26;;;;;;;13.05;6.55;;;3.70;99.90;;;;;;4963436;28;20419;-66
2021/11/13 01:36:54;;;;;;;13.48;7.05;;;3.70;99.90;;;;;;4981396;28;20319;-66
2021/11/13 01:39:22;;;;;;;15.98;7.55;;;3.80;99.90;;;;;;4981350;28;20027;-66
2021/11/13 01:41:49;;;;;;;12.20;6.65;;;3.80;99.90;;;;;;4980902;28;20035;-67
2021/11/13 01:44:17;;;;;;;15.63;6.68;;;3.80;99.90;;;;;;4963618;28;20034;-66
2021/11/13 01:46:44;;;;;;;12.73;7.00;;;3.80;99.90;;;;;;4980500;28;20519;-67
2021/11/13 01:49:12;;;;;;;14.13;7.60;;;3.90;99.90;;;;;;4980893;28;20305;-67
2021/11/13 01:51:44;;;;;;;14.20;7.25;;;3.90;99.90;;;;;;4980838;28;20019;-67
2021/11/13 01:54:12;;;;;;;11.25;6.47;;;3.90;99.90;;;;;;4980933;28;20090;-67
2021/11/13 01:56:40;;;;;;;14.38;7.45;;;3.90;99.90;;;;;;4979811;28;20085;-67
2021/11/13 01:59:09;;;;;;;12.55;7.05;;;3.90;99.90;;;;;;4979560;28;20031;-67
2021/11/13 02:01:37;;;;;;;13.88;6.55;;;3.90;99.90;;;;;;4979577;28;20043;-67
2021/11/13 02:04:05;;;;;;;12.50;6.78;;;3.90;99.90;;;;;;4979540;28;20030;-67
2021/11/13 02:06:34;;;;;;;12.18;6.38;;;4.00;99.90;;;;;;4979516;28;20022;-66
2021/11/13 02:09:02;;;;;;;11.57;6.00;;;4.00;99.90;;;;;;4979485;28;20023;-67
2021/11/13 02:11:30;;;;;;;15.27;6.90;;;4.00;99.90;;;;;;4979814;28;20019;-67
2021/11/13 02:13:57;;;;;;;11.57;6.20;;;4.00;99.90;;;;;;4962209;28;20335;-66
2021/11/13 02:16:25;;;;;;;13.65;6.38;;;4.00;99.90;;;;;;4979264;28;20031;-67
2021/11/13 02:18:54;;;;;;;13.25;6.95;;;4.00;99.90;;;;;;4980202;28;20415;-67
2021/11/13 02:21:23;;;;;;;11.82;6.25;;;4.00;99.90;;;;;;4980569;28;20027;-67
2021/11/13 02:23:51;;;;;;;14.55;7.65;;;4.00;99.90;;;;;;4980584;28;20019;-67
2021/11/13 02:26:19;;;;;;;17.90;6.75;;;4.00;99.90;;;;;;4980027;28;20427;-67
2021/11/13 02:28:46;;;;;;;12.85;6.57;;;4.00;99.90;;;;;;4962790;28;20035;-67
2021/11/13 02:31:14;;;;;;;15.77;7.30;;;4.00;99.90;;;;;;4962914;28;20023;-66
2021/11/13 02:33:42;;;;;;;13.18;7.05;;;4.00;99.90;;;;;;4979822;28;20027;-67
2021/11/13 02:36:13;;;;;;;15.38;7.57;;;4.00;99.90;;;;;;4979845;28;20029;-66
2021/11/13 02:38:43;;;;;;;11.35;6.68;;;4.00;99.90;;;;;;4962263;28;20034;-67
2021/11/13 02:41:12;;;;;;;11.63;6.38;;;4.00;99.90;;;;;;4978966;28;20030;-67
2021/11/13 02:43:40;;;;;;;12.23;6.95;;;4.00;99.90;;;;;;4978746;28;20023;-66
2021/11/13 02:46:09;;;;;;;12.48;6.13;;;4.00;99.90;;;;;;4978983;28;20054;-67
2021/11/13 02:48:40;;;;;;;12.60;6.57;;;4.00;99.90;;;;;;4978576;28;20035;-67
2021/11/13 02:51:09;;;;;;;11.20;5.93;;;4.00;99.90;;;;;;4978642;28;20027;-66
2021/11/13 02:53:37;;;;;;;10.75;5.90;;;4.00;99.90;;;;;;4961914;28;20552;-67
2021/11/13 02:56:07;;;;;;;12.18;6.07;;;4.00;99.90;;;;;;4978815;28;20019;-67
2021/11/13 02:58:36;;;;;;;11.27;6.05;;;4.00;99.90;;;;;;4978479;28;20027;-66
2021/11/13 03:01:08;;;;;;;10.68;6.10;;;4.00;99.90;;;;;;4978616;28;20550;-67
2021/11/13 03:03:38;;;;;;;11.43;6.13;;;4.00;99.90;;;;;;4979656;28;20327;-67
2021/11/13 03:06:13;;;;;;;12.48;6.43;;;4.00;99.90;;;;;;4979678;28;20323;-67
2021/11/13 03:08:41;;;;;;;13.13;6.25;;;4.00;99.90;;;;;;4979750;28;20120;-67
2021/11/13 03:11:14;;;;;;;10.68;5.72;;;3.90;99.90;;;;;;4962089;28;20034;-67
2021/11/13 03:13:44;;;;;;;11.82;6.43;;;3.90;99.90;;;;;;4978932;28;20027;-67
2021/11/13 03:16:13;;;;;;;13.82;6.60;;;3.90;99.90;;;;;;4979833;28;20034;-66
2021/11/13 03:18:40;;;;;;;11.15;5.88;;;3.90;99.90;;;;;;4979004;28;20026;-67
2021/11/13 03:21:09;;;;;;;13.45;6.00;;;3.90;99.90;;;;;;4978881;28;20086;-66
2021/11/13 03:23:41;;;;;;;11.57;6.20;;;3.90;99.90;;;;;;4961027;28;20065;-66
2021/11/13 03:26:21;;;;;;;13.18;6.90;;;3.80;99.90;;;;;;4961060;28;20027;-67
2021/11/13 03:29:15;;;;;;;10.95;6.38;;;3.80;99.90;;;;;;4960774;28;20030;-67
2021/11/13 03:31:44;;;;;;;12.48;6.07;;;3.80;99.90;;;;;;4960841;28;20023;-67
2021/11/13 03:34:12;;;;;;;11.88;6.00;;;3.80;99.90;;;;;;4977881;28;20324;-66
2021/11/13 03:36:40;;;;;;;12.77;6.30;;;3.80;99.90;;;;;;4961117;28;20103;-66
2021/11/13 03:39:07;;;;;;;13.07;6.13;;;3.80;99.90;;;;;;4977864;28;20030;-67
2021/11/13 03:41:36;;;;;;;12.05;6.45;;;3.80;99.90;;;;;;4978430;28;20308;-67
2021/11/13 03:44:04;;;;;;;12.65;5.75;;;3.90;99.90;;;;;;4978441;28;20308;-67
2021/11/13 03:46:31;;;;;;;11.30;5.82;;;3.80;99.90;;;;;;4978526;28;20043;-67
2021/11/13 03:48:59;;;;;;;11.85;5.75;;;3.90;99.90;;;;;;4978574;28;20025;-67
2021/11/13 03:51:26;;;;;;;12.77;6.50;;;3.90;99.90;;;;;;4979145;28;20347;-67
2021/11/13 03:53:54;;;;;;;11.90;5.90;;;3.90;99.90;;;;;;4978624;28;20469;-67
2021/11/13 03:56:21;;;;;;;12.98;5.47;;;3.90;99.90;;;;;;4979252;28;20031;-67
2021/11/13 03:58:49;;;;;;;11.68;5.93;;;3.90;99.90;;;;;;4979058;28;20166;-67
2021/11/13 04:01:16;;;;;;;9.80;5.30;;;3.80;99.90;;;;;;4979052;28;20023;-66
2021/11/13 04:03:43;;;;;;;8.90;4.95;;;3.90;99.90;;;;;;4978950;28;20035;-67
2021/11/13 04:06:11;;;;;;;14.13;6.60;;;3.90;99.90;;;;;;4977757;28;20023;-67
2021/11/13 04:08:38;;;;;;;12.05;5.60;;;3.90;99.90;;;;;;4977986;28;20019;-66
2021/11/13 04:11:06;;;;;;;11.75;5.53;;;3.90;99.90;;;;;;4978095;28;20027;-67
2021/11/13 04:13:34;;;;;;;12.95;6.10;;;3.90;99.90;;;;;;4978032;28;20019;-67
2021/11/13 04:16:02;;;;;;;10.98;6.15;;;3.90;99.90;;;;;;4977844;28;20058;-67
2021/11/13 04:18:29;;;;;;;10.77;6.45;;;3.90;99.90;;;;;;4977720;28;20077;-67
2021/11/13 04:20:56;;;;;;;11.73;5.82;;;4.00;99.90;;;;;;4977444;28;20350;-67
2021/11/13 04:23:24;;;;;;;9.68;5.22;;;4.00;99.90;;;;;;4977921;28;20029;-67
2021/11/13 04:25:52;;;;;;;9.70;5.07;;;4.00;99.90;;;;;;4963123;28;20051;-67
2021/11/13 04:28:21;;;;;;;11.15;5.85;;;4.00;99.90;;;;;;4982163;28;20022;-67
2021/11/13 04:30:49;;;;;;;11.30;5.75;;;4.00;99.90;;;;;;4982679;28;20101;-67
2021/11/13 04:33:16;;;;;;;11.65;5.50;;;4.10;99.90;;;;;;4982617;28;20085;-67
2021/11/13 04:35:59;;;;;;;11.15;5.40;;;4.10;99.90;;;;;;4982714;28;20020;-67
2021/11/13 04:38:29;;;;;;;12.30;5.35;;;4.10;99.90;;;;;;4982487;28;20082;-67
2021/11/13 04:40:58;;;;;;;10.18;5.13;;;4.10;99.90;;;;;;4982054;28;20057;-67
2021/11/13 04:43:26;;;;;;;11.93;5.90;;;4.10;99.90;;;;;;4981898;28;20027;-67
2021/11/13 04:45:55;;;;;;;11.60;5.57;;;4.10;99.90;;;;;;4982314;28;20080;-67
2021/11/13 04:48:22;;;;;;;10.10;5.05;;;4.10;99.90;;;;;;4982193;28;20365;-67
2021/11/13 04:50:49;;;;;;;13.85;5.57;;;4.20;99.90;;;;;;4963694;28;20039;-67
2021/11/13 04:53:17;;;;;;;9.38;5.35;;;4.20;99.90;;;;;;4980797;28;20089;-67
2021/11/13 04:55:44;;;;;;;10.18;5.03;;;4.20;99.90;;;;;;4981559;28;20034;-67
2021/11/13 04:58:12;;;;;;;10.15;5.15;;;4.20;99.90;;;;;;4980735;28;20331;-67
2021/11/13 05:00:40;;;;;;;13.88;5.28;;;4.20;99.90;;;;;;4981249;28;20470;-67
2021/11/13 05:03:07;;;;;;;10.93;5.43;;;4.20;99.90;;;;;;4980656;28;20342;-67
2021/11/13 05:05:34;;;;;;;11.00;5.60;;;4.30;99.90;;;;;;4980909;28;20031;-67
2021/11/13 05:08:02;;;;;;;11.07;4.57;;;4.30;99.90;;;;;;4980528;28;20030;-67
2021/11/13 05:10:29;;;;;;;11.05;6.63;;;4.30;99.90;;;;;;4980574;28;20015;-67
2021/11/13 05:12:57;;;;;;;11.73;5.35;;;4.30;99.90;;;;;;4981442;28;20026;-66
2021/11/13 05:15:25;;;;;;;10.65;5.85;;;4.20;99.90;;;;;;4981534;28;20050;-67
2021/11/13 05:17:52;;;;;;;10.95;5.43;;;4.30;99.90;;;;;;4981831;28;20027;-67
2021/11/13 05:20:21;;;;;;;10.85;5.70;;;4.30;99.90;;;;;;4981211;28;20048;-66
2021/11/13 05:22:49;;;;;;;11.35;5.82;;;4.20;99.90;;;;;;4981150;28;20080;-66
2021/11/13 05:25:21;;;;;;;11.95;5.80;;;4.20;99.90;;;;;;4964883;28;20035;-67
2021/11/13 05:27:49;;;;;;;11.40;6.03;;;4.20;99.90;;;;;;4981306;28;20099;-67
2021/11/13 05:30:18;;;;;;;12.02;6.07;;;4.10;99.90;;;;;;4981101;28;20019;-66
2021/11/13 05:32:45;;;;;;;12.23;6.18;;;4.10;99.90;;;;;;4980232;28;20078;-67
2021/11/13 05:35:13;;;;;;;11.30;5.82;;;4.10;99.90;;;;;;4980413;28;20102;-67
2021/11/13 05:37:41;;;;;;;12.40;6.35;;;4.00;99.90;;;;;;4979039;28;20102;-66
2021/11/13 05:40:10;;;;;;;12.43;6.88;;;4.00;99.90;;;;;;4963448;28;20027;-67
2021/11/13 05:42:38;;;;;;;11.02;5.85;;;3.90;99.90;;;;;;4980234;28;20027;-67
2021/11/13 05:45:08;;;;;;;12.02;6.05;;;3.90;99.90;;;;;;4963112;28;20026;-66
2021/11/13 05:47:35;;;;;;;14.52;6.45;;;3.90;99.90;;;;;;4979653;28;20051;-67
2021/11/13 05:50:05;;;;;;;10.93;6.10;;;3.90;99.90;;;;;;4962793;28;20045;-66
2021/11/13 05:52:32;;;;;;;15.15;7.35;;;3.90;99.90;;;;;;4980393;28;20027;-67
2021/11/13 05:55:00;;;;;;;14.25;7.13;;;3.90;99.90;;;;;;4980691;28;20042;-67
2021/11/13 05:57:27;;;;;;;14.90;7.28;;;3.80;99.90;;;;;;4981296;28;20031;-66
2021/11/13 05:59:55;;;;;;;13.57;6.82;;;3.90;99.90;;;;;;4963393;28;20054;-66
2021/11/13 06:02:22;;;;;;;12.98;7.07;;;3.90;99.90;;;;;;4980540;28;20027;-67
2021/11/13 06:04:50;;;;;;;14.68;7.65;;;3.80;99.90;;;;;;4980374;28;20093;-66
2021/11/13 06:07:19;;;;;;;12.10;6.28;;;3.80;99.90;;;;;;4980971;28;20315;-66
2021/11/13 06:09:46;;;;;;;15.98;7.50;;;3.80;99.90;;;;;;4980417;28;20046;-67
2021/11/13 06:12:13;;;;;;;14.23;7.38;;;3.90;99.90;;;;;;4980312;28;20027;-67
2021/11/13 06:14:41;;;;;;;17.60;7.40;;;3.90;99.90;;;;;;4980010;28;20030;-67
2021/11/13 06:17:09;;;;;;;16.52;6.57;;;3.90;99.90;;;;;;4979878;28;20344;-67
2021/11/13 06:19:37;;;;;;;17.48;8.15;;;3.90;99.90;;;;;;4979763;28;20030;-66
2021/11/13 06:22:04;;;;;;;13.95;7.20;;;3.90;99.90;;;;;;4962100;28;20042;-67
2021/11/13 06:24:31;;;;;;;14.43;7.15;;;3.90;99.90;;;;;;4979317;28;20431;-67
2021/11/13 06:26:59;;;;;;;15.65;7.55;;;3.90;99.90;;;;;;4979118;28;20426;-67
2021/11/13 06:29:27;;;;;;;15.63;7.68;;;3.90;99.90;;;;;;4979086;28;20101;-66
2021/11/13 06:31:56;;;;;;;16.73;7.40;;;3.90;99.90;;;;;;4979214;28;20023;-67
2021/11/13 06:34:23;;;;;;;22.35;7.35;;;3.90;99.90;;;;;;4978917;28;20018;-67
2021/11/13 06:36:51;;;;;;;16.15;7.25;;;3.90;99.90;;;;;;4978857;28;20080;-66
2021/11/13 06:39:19;;;;;;;14.48;7.50;;;4.00;99.90;;;;;;4980162;28;20026;-65
2021/11/13 06:41:47;;;;;;;15.38;7.65;;;4.00;99.90;;;;;;4980717;28;20346;-67
2021/11/13 06:44:14;;;;;;;14.52;7.40;;;4.00;99.90;;;;;;4980283;28;20027;-67
2021/11/13 06:46:42;;;;;;;12.27;7.05;;;4.00;99.90;;;;;;4979791;28;20466;-67
2021/11/13 06:49:10;;;;;;;14.45;7.00;;;4.00;99.90;;;;;;4980018;28;20065;-67
2021/11/13 06:51:38;;;;;;;15.20;7.15;;;4.00;99.90;;;;;;4980290;28;20051;-66
2021/11/13 06:54:05;;;;;;;16.80;8.02;;;4.00;99.90;;;;;;4979731;28;20015;-66
2021/11/13 06:56:33;;;;;;;18.75;8.20;;;4.00;99.90;;;;;;4979476;28;20070;-67
2021/11/13 06:59:00;;;;;;;15.38;7.82;;;4.10;99.90;;;;;;4978757;28;20023;-67
2021/11/13 07:01:28;;;;;;;18.60;6.95;;;4.10;99.90;;;;;;4978642;28;20030;-67
2021/11/13 07:03:56;;;;;;;17.42;8.30;;;4.10;99.90;;;;;;4978886;28;20018;-66
2021/11/13 07:06:23;;;;;;;21.17;8.00;;;4.10;99.90;;;;;;4961219;28;20086;-66
2021/11/13 07:08:51;;;;;;;14.90;7.65;;;4.10;99.90;;;;;;4978301;28;20110;-67
2021/11/13 07:11:18;;;;;;;18.70;8.18;;;4.10;99.90;;;;;;4979005;28;20019;-66
2021/11/13 07:13:46;;;;;;;16.65;7.85;;;4.10;99.90;;;;;;4978309;28;20054;-67
2021/11/13 07:16:14;;;;;;;17.02;8.07;;;4.10;99.90;;;;;;4978823;28;20403;-67
2021/11/13 07:18:41;;;;;;;16.48;7.47;;;4.10;99.90;;;;;;4978112;28;20328;-67
2021/11/13 07:21:08;;;;;;;17.17;7.45;;;4.10;99.90;;;;;;4978589;28;20027;-67
2021/11/13 07:23:36;;;;;;;17.95;8.43;;;4.10;99.90;;;;;;4979000;28;20026;-67
2021/11/13 07:26:06;;;;;;;18.55;8.20;;;4.10;99.90;;;;;;4979566;28;20026;-68
2021/11/13 07:28:38;;;;;;;16.42;7.78;;;4.10;99.90;;;;;;4978929;28;20027;-70
2021/11/13 07:31:14;;;;;;;16.17;7.40;;;4.20;99.90;;;;;;4978722;28;20440;-71
2021/11/13 07:33:42;;;;;;;17.10;8.68;;;4.20;99.90;;;;;;4978860;28;20026;-69
2021/11/13 07:36:10;;;;;;;17.35;8.10;;;4.20;99.90;;;;;;4961377;28;20026;-69
2021/11/13 07:38:42;;;;;;;24.40;11.20;;;4.20;99.90;;;;;;4978657;28;20030;-68
2021/11/13 07:41:10;;;;;;;19.65;9.50;;;4.20;99.90;;;;;;4978467;28;20035;-68
2021/11/13 07:43:39;;;;;;;16.27;8.40;;;4.30;99.90;;;;;;4978342;28;20308;-70
2021/11/13 07:46:07;;;;;;;18.40;8.60;;;4.30;99.90;;;;;;4977585;28;20035;-69
2021/11/13 07:48:35;;;;;;;19.75;8.70;;;4.30;99.90;;;;;;4960604;28;20118;-70
2021/11/13 07:51:04;;;;;;;16.17;6.95;;;4.30;99.90;;;;;;4977729;28;20027;-69
2021/11/13 07:53:32;;;;;;;21.30;7.88;;;4.30;99.90;;;;;;4977716;28;20086;-69
2021/11/13 07:55:59;;;;;;;20.00;9.02;;;4.30;99.90;;;;;;4960746;28;20058;-68
2021/11/13 07:58:27;;;;;;;17.08;7.43;;;4.40;99.90;;;;;;4977681;28;20371;-67
2021/11/13 08:00:55;;;;;;;14.65;7.45;;;4.40;99.90;;;;;;4977237;28;20027;-67
2021/11/13 08:03:24;;;;;;;20.00;9.45;;;4.40;99.90;;;;;;4978386;28;20400;-66
2021/11/13 08:05:52;;;;;;;25.50;12.75;;;4.40;99.90;;;;;;4978671;28;20329;-67
2021/11/13 08:08:20;;;;;;;17.45;8.80;;;4.30;99.90;;;;;;4978290;28;20090;-67
2021/11/13 08:10:48;;;;;;;18.60;9.23;;;4.30;99.90;;;;;;4978393;28;20034;-67
2021/11/13 08:13:18;;;;;;;20.70;8.48;;;4.30;99.90;;;;;;4978421;28;20019;-67
2021/11/13 08:15:46;;;;;;;21.35;9.18;;;4.40;99.90;;;;;;4978847;28;20022;-67
2021/11/13 08:18:14;;;;;;;21.15;9.57;;;4.40;99.90;;;;;;4978965;28;20034;-67
2021/11/13 08:20:41;;;;;;;18.33;9.07;;;4.30;99.90;;;;;;4978390;28;20158;-67
2021/11/13 08:23:10;;;;;;;18.13;9.20;;;4.40;99.90;;;;;;4961173;28;20054;-68
2021/11/13 08:25:42;;;;;;;17.30;8.48;;;4.40;99.90;;;;;;4978213;28;20027;-67
2021/11/13 08:28:11;;;;;;;16.88;10.30;;;4.40;99.90;;;;;;4977959;28;20319;-68
2021/11/13 08:30:41;;;;;;;15.48;8.93;;;4.40;99.90;;;;;;4978010;28;20030;-68
2021/11/13 08:33:11;;;;;;;21.23;8.80;;;4.40;99.90;;;;;;4977698;28;20382;-67
2021/11/13 08:35:42;;;;;;;17.42;8.30;;;4.50;99.90;;;;;;4960464;28;20379;-67
2021/11/13 08:38:15;;;;;;;16.63;8.20;;;4.50;99.90;;;;;;4977262;28;20103;-67
2021/11/13 08:40:43;;;;;;;18.50;8.35;;;4.50;99.90;;;;;;4977656;28;20363;-67
2021/11/13 08:43:12;;;;;;;19.08;8.70;;;4.50;99.90;;;;;;4960116;28;20093;-67
2021/11/13 08:45:39;;;;;;;19.60;8.63;;;4.50;99.90;;;;;;4960239;28;20384;-67
2021/11/13 08:48:07;;;;;;;17.98;8.50;;;4.60;99.90;;;;;;4977813;28;20133;-67
2021/11/13 08:50:35;;;;;;;18.85;8.77;;;4.60;99.90;;;;;;4978030;28;20019;-67
2021/11/13 08:53:05;;;;;;;17.08;7.93;;;4.60;99.90;;;;;;4978080;28;20019;-67
2021/11/13 08:55:34;;;;;;;20.02;9.05;;;4.60;99.90;;;;;;4960937;28;20026;-67
2021/11/13 08:58:07;;;;;;;20.52;9.63;;;4.60;99.90;;;;;;4978203;28;20506;-67
2021/11/13 09:00:51;;;;;;;21.77;9.20;;;4.70;99.90;;;;;;4978015;28;20027;-67
2021/11/13 09:03:36;;;;;;;20.98;8.63;;;4.70;99.90;;;;;;4977911;28;20431;-67
2021/11/13 09:06:09;;;;;;;21.88;8.90;;;4.70;99.90;;;;;;4960583;28;20081;-66
2021/11/13 09:08:39;;;;;;;21.63;9.55;;;4.70;99.90;;;;;;4976913;28;20031;-67
2021/11/13 09:11:09;;;;;;;18.63;8.20;;;4.80;99.90;;;;;;4976973;28;20023;-67
2021/11/13 09:13:37;;;;;;;18.58;9.38;;;4.80;99.90;;;;;;4963197;28;20019;-67
2021/11/13 09:16:08;;;;;;;22.02;9.50;;;4.80;99.90;;;;;;4981066;28;20022;-67
2021/11/13 09:18:36;;;;;;;19.33;8.52;;;4.90;99.90;;;;;;4980464;28;20034;-67
2021/11/13 09:21:04;;;;;;;21.20;9.70;;;4.90;99.90;;;;;;4980413;28;20070;-67
2021/11/13 09:23:31;;;;;;;19.67;10.00;;;4.90;99.90;;;;;;4980852;28;20363;-67
2021/11/13 09:25:59;;;;;;;19.13;8.02;;;4.90;99.90;;;;;;4980955;28;20026;-67
2021/11/13 09:28:27;;;;;;;15.63;8.27;;;5.00;99.90;;;;;;4962997;28;20031;-67
2021/11/13 09:30:55;;;;;;;16.95;8.50;;;5.00;99.90;;;;;;4981651;28;20019;-67
2021/11/13 09:33:24;;;;;;;20.23;9.35;;;5.10;99.90;;;;;;4980995;28;20024;-67
2021/11/13 09:35:52;;;;;;;17.70;9.32;;;5.10;99.90;;;;;;4981046;28;20023;-66
2021/11/13 09:38:21;;;;;;;24.88;8.52;;;5.00;99.90;;;;;;4981116;28;20025;-67
2021/11/13 09:40:50;;;;;;;17.15;8.32;;;5.10;99.90;;;;;;4980932;28;20086;-67
2021/11/13 09:43:17;;;;;;;14.35;8.35;;;5.10;99.90;;;;;;4980742;28;20106;-67
2021/11/13 09:45:45;;;;;;;20.33;8.52;;;5.10;99.90;;;;;;4981450;28;20085;-67
2021/11/13 09:48:13;;;;;;;16.77;8.35;;;5.10;99.90;;;;;;4980394;28;20046;-67
2021/11/13 09:50:40;;;;;;;18.15;8.23;;;5.20;99.90;;;;;;4980051;28;20423;-67
2021/11/13 09:53:09;;;;;;;14.38;8.23;;;5.20;99.90;;;;;;4962561;28;20499;-67
2021/11/13 09:55:37;;;;;;;18.77;9.13;;;5.20;99.90;;;;;;4980171;28;20102;-67
2021/11/13 09:58:04;;;;;;;18.90;8.75;;;5.20;99.90;;;;;;4979723;28;20360;-67
2021/11/13 10:00:37;;;;;;;19.15;8.35;;;5.10;99.90;;;;;;4979602;28;20019;-67
2021/11/13 10:03:05;;;;;;;18.67;8.63;;;5.20;99.90;;;;;;4979643;28;20058;-68
2021/11/13 10:05:33;;;;;;;16.02;7.75;;;5.10;99.90;;;;;;4979426;28;20031;-67
2021/11/13 10:08:00;;;;;;;17.08;8.43;;;5.20;99.90;;;;;;4979456;28;20105;-66
2021/11/13 10:10:37;;;;;;;17.30;8.30;;;5.10;99.90;;;;;;4979481;28;20023;-67
2021/11/13 10:13:24;;;;;;;16.30;8.20;;;5.10;99.90;;;;;;4963008;28;20436;-67
2021/11/13 10:15:55;;;;;;;;;;;5.10;99.90;;;;;;4981266;28;20035;-67
2021/11/13 10:18:26;;;;;;;15.02;7.13;;;5.10;99.90;;;;;;4963020;28;19953;-67
2021/11/13 10:21:02;;;;;;;15.50;6.88;;;5.10;99.90;;;;;;4980072;28;20375;-67
2021/11/13 10:23:30;;;;;;;13.50;7.03;;;5.10;99.90;;;;;;4979722;28;20023;-67
2021/11/13 10:26:30;;;;;;;15.77;6.95;;;5.10;99.90;;;;;;4980700;28;20038;-67
2021/11/13 10:29:05;;;;;;;16.73;7.53;;;5.10;99.90;;;;;;4976359;28;20093;-67
2021/11/13 10:31:43;;;;;;;14.00;7.63;;;5.20;99.90;;;;;;4980395;28;20430;-67
2021/11/13 10:34:15;;;;;;;18.48;7.50;;;5.20;99.90;;;;;;4978880;28;20029;-67
2021/11/13 10:36:48;;;;;;;13.18;7.15;;;5.30;99.90;;;;;;4979592;28;20042;-67
2021/11/13 10:39:22;;;;;;;16.65;7.05;;;5.30;99.90;;;;;;4979440;28;20483;-67
2021/11/13 10:41:54;;;;;;;19.33;7.70;;;5.40;99.90;;;;;;4979299;28;20019;-67
2021/11/13 10:44:31;;;;;;;17.13;8.27;;;5.40;99.90;;;;;;4978812;28;20406;-67
2021/11/13 10:46:58;;;;;;;;;;;5.50;99.90;;;;;;4978948;28;20113;-67
2021/11/13 10:49:26;;;;;;;16.00;7.43;;;5.50;99.90;;;;;;4978883;28;20009;-67
2021/11/13 10:51:59;;;;;;;16.65;8.15;;;5.50;99.90;;;;;;4978838;28;20031;-67
2021/11/13 10:54:28;;;;;;;14.73;7.75;;;5.50;99.90;;;;;;4978683;28;20031;-67
2021/11/13 10:56:58;;;;;;;15.07;8.50;;;5.40;99.90;;;;;;4979684;28;20329;-67
2021/11/13 10:59:34;;;;;;;14.68;7.47;;;5.40;99.90;;;;;;4979367;28;20033;-67
2021/11/13 11:02:13;;;;;;;;;;;5.40;99.90;;;;;;4980452;28;20109;-67
2021/11/13 11:04:43;;;;;;;19.23;7.85;;;5.40;99.90;;;;;;4979459;28;19906;-67
2021/11/13 11:07:21;;;;;;;16.58;8.05;;;5.40;99.90;;;;;;4962057;28;20033;-67
2021/11/13 11:10:04;;;;;;;14.00;7.68;;;5.30;99.90;;;;;;4979496;28;20029;-66
2021/11/13 11:12:34;;;;;;;16.85;8.88;;;5.40;99.90;;;;;;4962043;28;20027;-67
2021/11/13 11:15:07;;;;;;;17.70;9.00;;;5.40;99.90;;;;;;4978833;28;20323;-67
2021/11/13 11:17:35;;;;;;;18.00;9.52;;;5.40;99.90;;;;;;4978812;28;20054;-67
2021/11/13 11:20:15;;;;;;;18.13;8.10;;;5.40;99.90;;;;;;4978432;28;20027;-66
2021/11/13 11:22:44;;;;;;;15.88;7.95;;;5.40;99.90;;;;;;4978145;28;20027;-66
2021/11/13 11:25:13;;;;;;;15.57;8.18;;;5.40;99.90;;;;;;4978156;28;20447;-67
2021/11/13 11:27:49;;;;;;;18.27;7.95;;;5.40;99.90;;;;;;4978612;28;20030;-66
2021/11/13 11:30:19;;;;;;;25.98;9.55;;;5.40;99.90;;;;;;4960918;28;20050;-66
2021/11/13 11:32:51;;;;;;;17.75;8.32;;;5.40;99.90;;;;;;4960861;28;20420;-66
2021/11/13 11:35:25;;;;;;;20.38;8.40;;;5.40;99.90;;;;;;4977482;28;20031;-66
2021/11/13 11:38:06;;;;;;;21.05;9.23;;;5.40;99.90;;;;;;4977895;28;20509;-69
2021/11/13 11:40:42;;;;;;;17.55;8.57;;;5.40;99.90;;;;;;4977943;28;20425;-68
2021/11/13 11:43:10;;;;;;;17.83;8.80;;;5.40;99.90;;;;;;4978393;28;20398;-68
2021/11/13 11:45:40;;;;;;;18.92;9.20;;;5.40;99.90;;;;;;4978242;28;20043;-68
2021/11/13 11:48:13;;;;;;;17.20;8.50;;;5.40;99.90;;;;;;4957340;29;20463;-67
2021/11/13 11:50:43;;;;;;;19.40;8.57;;;5.40;99.90;;;;;;4958545;28;20502;-67
2021/11/13 11:53:12;;;;;;;15.35;8.32;;;5.40;99.90;;;;;;4959035;28;20034;-67
2021/11/13 11:55:43;;;;;;;15.20;8.07;;;5.50;99.90;;;;;;4959576;28;20102;-66
2021/11/13 11:58:16;;;;;;;18.45;8.70;;;5.50;99.90;;;;;;4958249;29;20031;-66
2021/11/13 12:00:45;;;;;;;18.65;9.23;;;5.50;99.90;;;;;;4959298;28;20102;-67
2021/11/13 12:03:29;;;;;;;18.95;8.23;;;5.50;99.90;;;;;;4959779;28;20031;-67
2021/11/13 12:05:57;;;;;;;17.83;7.30;;;5.50;99.90;;;;;;4959251;28;20039;-67
2021/11/13 12:08:30;;;;;;;14.65;8.38;;;5.50;99.90;;;;;;4958061;29;20047;-67
2021/11/13 12:11:21;;;;;;;16.38;8.30;;;5.50;99.90;;;;;;4959172;29;20073;-67
2021/11/13 12:13:49;;;;;;;16.13;9.00;;;5.50;99.90;;;;;;4958926;29;20027;-67
2021/11/13 12:16:25;;;;;;;21.23;9.52;;;5.50;99.90;;;;;;4958371;29;20037;-66
2021/11/13 12:18:53;;;;;;;17.02;7.93;;;5.50;99.90;;;;;;4958534;28;20380;-67
2021/11/13 12:21:21;;;;;;;15.02;7.70;;;5.50;99.90;;;;;;4958100;29;20036;-67
2021/11/13 12:23:50;;;;;;;20.42;10.02;;;5.50;99.90;;;;;;4958152;28;20499;-67
2021/11/13 12:26:32;;;;;;;19.38;9.38;;;5.50;99.90;;;;;;4958142;29;20031;-67
2021/11/13 12:29:04;;;;;;;21.42;11.98;;;5.50;99.90;;;;;;4958885;28;20027;-67
2021/11/13 12:31:43;;;;;;;21.23;9.40;;;5.50;99.90;;;;;;4958276;29;20022;-67
2021/11/13 12:34:16;;;;;;;18.92;8.85;;;5.50;99.90;;;;;;4958700;28;20034;-67
2021/11/13 12:37:08;;;;;;;15.65;8.27;;;5.50;99.90;;;;;;4958246;29;20031;-67
2021/11/13 12:39:46;;;;;;;16.20;8.68;;;5.50;99.90;;;;;;4958856;28;20028;-67
2021/11/13 12:42:26;;;;;;;17.55;8.10;;;5.50;99.90;;;;;;4958925;29;20110;-67
2021/11/13 12:45:01;;;;;;;16.17;8.20;;;5.50;99.90;;;;;;4958925;29;20031;-67
2021/11/13 12:47:36;;;;;;;17.05;8.73;;;5.60;99.90;;;;;;4961160;29;20044;-67
2021/11/13 12:50:18;;;;;;;13.80;7.28;;;5.60;99.90;;;;;;4962541;28;20051;-67
2021/11/13 12:52:48;;;;;;;14.85;8.15;;;5.70;99.90;;;;;;4962481;28;20050;-67
2021/11/13 12:55:25;;;;;;;15.77;7.80;;;5.70;99.90;;;;;;4961568;29;20027;-67
2021/11/13 12:58:17;;;;;;;15.02;7.40;;;5.70;99.90;;;;;;4961983;29;20038;-66
2021/11/13 13:00:53;;;;;;;19.60;7.80;;;5.80;99.90;;;;;;4961495;28;20031;-67